Time;durP1;ratioP1;P1;durP2;ratioP2;P2;SDS_P1;SDS_P2;PMS_P1;PMS_P2;Temp;Humidity;BMP_temperature;BMP_pressure;BME280_temperature;BME280_humidity;BME280_pressure;Samples;Min_cycle;Max_cycle;Signal;HPM_P1;HPM_P2
2023/06/18 00:01:19;;;;;;;;;;;13.10;99.90;;;;;;5076594;28;19911;-84
2023/06/18 00:03:45;;;;;;;;;;;13.10;99.90;;;;;;5059836;28;19908;-84
2023/06/18 00:06:10;;;;;;;;;;;13.10;99.90;;;;;;5076252;28;19946;-84
2023/06/18 00:08:36;;;;;;;;;;;13.10;99.90;;;;;;5076449;28;19908;-84
2023/06/18 00:11:01;;;;;;;;;;;13.10;99.90;;;;;;5076308;28;20395;-84
2023/06/18 00:13:27;;;;;;;;;;;13.10;99.90;;;;;;5076024;28;19957;-84
2023/06/18 00:15:52;;;;;;;;;;;13.10;99.90;;;;;;5075664;28;19912;-84
2023/06/18 00:18:18;;;;;;;;;;;13.10;99.90;;;;;;5075668;28;20034;-84
2023/06/18 00:20:44;;;;;;;;;;;13.10;99.90;;;;;;5076401;28;19908;-84
2023/06/18 00:23:09;;;;;;;;;;;13.10;99.90;;;;;;5076012;28;19912;-84
2023/06/18 00:25:36;;;;;;;;;;;13.00;99.90;;;;;;5076352;28;19908;-84
2023/06/18 00:28:17;;;;;;;;;;;13.00;99.90;;;;;;5059419;28;19930;-84
2023/06/18 00:30:43;;;;;;;;;;;13.00;99.90;;;;;;5076229;28;20014;-84
2023/06/18 00:33:08;;;;;;;;;;;12.90;99.90;;;;;;5059388;28;20368;-84
2023/06/18 00:35:34;;;;;;;;;;;13.00;99.90;;;;;;5059056;28;19959;-84
2023/06/18 00:38:02;;;;;;;;;;;13.00;99.90;;;;;;5059221;28;20391;-84
2023/06/18 00:40:28;;;;;;;;;;;12.90;99.90;;;;;;5076803;28;19962;-84
2023/06/18 00:42:55;;;;;;;;;;;12.90;99.90;;;;;;5075090;28;19908;-84
2023/06/18 00:45:22;;;;;;;;;;;12.90;99.90;;;;;;5072815;28;19961;-84
2023/06/18 00:47:48;;;;;;;;;;;12.80;99.90;;;;;;5078593;28;19916;-84
2023/06/18 00:50:15;;;;;;;;;;;12.80;99.90;;;;;;5075581;28;19912;-83
2023/06/18 00:52:47;;;;;;;;;;;12.80;99.90;;;;;;5075129;28;19908;-84
2023/06/18 00:55:13;;;;;;;;;;;12.90;99.90;;;;;;5075142;28;19944;-84
2023/06/18 00:58:02;;;;;;;;;;;12.80;99.90;;;;;;5057581;28;19912;-84
2023/06/18 01:00:28;;;;;;;;;;;12.80;99.90;;;;;;5074169;28;20428;-84
2023/06/18 01:03:16;;;;;;;;;;;12.80;99.90;;;;;;5075566;28;20031;-84
2023/06/18 01:05:43;;;;;;;;;;;12.70;99.90;;;;;;5074682;28;19961;-84
2023/06/18 01:08:12;;;;;;;;;;;12.70;99.90;;;;;;5075151;28;20348;-84
2023/06/18 01:10:40;;;;;;;;;;;12.70;99.90;;;;;;5075503;28;19908;-84
2023/06/18 01:13:14;;;;;;;;;;;12.60;99.90;;;;;;5075114;28;19912;-84
2023/06/18 01:15:39;;;;;;;;;;;12.70;99.90;;;;;;5058262;28;19909;-84
2023/06/18 01:18:07;;;;;;;;;;;12.60;99.90;;;;;;5074773;28;19909;-84
2023/06/18 01:20:40;;;;;;;;;;;12.60;99.90;;;;;;5057980;28;19912;-83
2023/06/18 01:23:27;;;;;;;;;;;12.50;99.90;;;;;;5083549;28;20373;-83
2023/06/18 01:25:57;;;;;;;;;;;12.50;99.90;;;;;;5083592;28;19924;-83
2023/06/18 01:28:24;;;;;;;;;;;12.40;99.90;;;;;;5085031;28;19915;-84
2023/06/18 01:30:50;;;;;;;;;;;12.40;99.90;;;;;;5075026;28;19908;-84
2023/06/18 01:33:16;;;;;;;;;;;12.50;99.90;;;;;;5074833;28;19916;-84
2023/06/18 01:35:41;;;;;;;;;;;12.50;99.90;;;;;;5076273;28;19908;-84
2023/06/18 01:38:32;;;;;;;;;;;12.50;99.90;;;;;;5074903;28;19916;-84
2023/06/18 01:41:06;;;;;;;;;;;12.50;99.90;;;;;;5058288;28;20347;-84
2023/06/18 01:43:50;;;;;;;;;;;12.50;99.90;;;;;;5058138;28;20374;-84
2023/06/18 01:46:20;;;;;;;;;;;12.40;99.90;;;;;;5074204;28;19916;-84
2023/06/18 01:48:59;;;;;;;;;;;12.30;99.90;;;;;;5074697;28;20306;-84
2023/06/18 01:51:26;;;;;;;;;;;12.30;99.90;;;;;;5083686;28;19914;-84
2023/06/18 01:53:53;;;;;;;;;;;12.30;99.90;;;;;;5074327;28;19909;-84
2023/06/18 01:56:20;;;;;;;;;;;12.30;99.90;;;;;;5073846;28;19912;-82
2023/06/18 01:58:46;;;;;;;;;;;12.40;99.90;;;;;;5074340;28;20421;-84
2023/06/18 02:01:11;;;;;;;;;;;12.30;99.90;;;;;;5073954;28;19908;-84
2023/06/18 02:03:37;;;;;;;;;;;12.20;99.90;;;;;;5074063;28;19908;-84
2023/06/18 02:06:03;;;;;;;;;;;12.30;99.90;;;;;;5074035;28;19938;-83
2023/06/18 02:08:29;;;;;;;;;;;12.20;99.90;;;;;;5073483;28;20302;-84
2023/06/18 02:10:55;;;;;;;;;;;12.10;99.90;;;;;;5073450;28;19908;-84
2023/06/18 02:13:20;;;;;;;;;;;12.20;99.90;;;;;;5074053;28;19909;-84
2023/06/18 02:15:46;;;;;;;;;;;12.10;99.90;;;;;;5073996;28;19915;-84
2023/06/18 02:18:12;;;;;;;;;;;12.10;99.90;;;;;;5073675;28;19912;-83
2023/06/18 02:20:38;;;;;;;;;;;12.10;99.90;;;;;;5056985;28;19952;-83
2023/06/18 02:23:04;;;;;;;;;;;12.00;99.90;;;;;;5073515;28;20298;-84
2023/06/18 02:25:32;;;;;;;;;;;12.00;99.90;;;;;;5057096;28;19908;-84
2023/06/18 02:28:01;;;;;;;;;;;12.00;99.90;;;;;;5074145;28;19920;-84
2023/06/18 02:30:29;;;;;;;;;;;12.00;99.90;;;;;;5072856;28;19955;-84
2023/06/18 02:32:56;;;;;;;;;;;12.00;99.90;;;;;;5073704;28;19909;-84
2023/06/18 02:35:21;;;;;;;;;;;12.10;99.90;;;;;;5056716;28;19908;-84
2023/06/18 02:37:47;;;;;;;;;;;12.00;99.90;;;;;;5073615;28;20368;-84
2023/06/18 02:40:14;;;;;;;;;;;12.10;99.90;;;;;;5056345;28;19985;-84
2023/06/18 02:42:46;;;;;;;;;;;12.10;99.90;;;;;;5073502;28;19912;-84
2023/06/18 02:45:13;;;;;;;;;;;12.10;99.90;;;;;;5055978;28;20295;-84
2023/06/18 02:47:38;;;;;;;;;;;12.10;99.90;;;;;;5056800;28;20355;-84
2023/06/18 02:50:05;;;;;;;;;;;12.00;99.90;;;;;;5056605;28;19957;-84
2023/06/18 02:52:30;;;;;;;;;;;12.00;99.90;;;;;;5056595;28;19908;-84
2023/06/18 02:54:56;;;;;;;;;;;12.00;99.90;;;;;;5072797;28;19908;-84
2023/06/18 02:57:22;;;;;;;;;;;11.90;99.90;;;;;;5073421;28;19913;-85
2023/06/18 02:59:47;;;;;;;;;;;11.90;99.90;;;;;;5073344;28;20279;-84
2023/06/18 03:02:13;;;;;;;;;;;11.90;99.90;;;;;;5072932;28;20023;-84
2023/06/18 03:07:45;;;;;;;;;;;12.00;99.90;;;;;;5081722;28;19908;-84
2023/06/18 03:10:12;;;;;;;;;;;12.00;99.90;;;;;;5072977;28;20007;-84
2023/06/18 03:12:38;;;;;;;;;;;12.00;99.90;;;;;;5056567;28;19991;-84
2023/06/18 03:15:17;;;;;;;;;;;12.00;99.90;;;;;;5073273;28;19989;-85
2023/06/18 03:17:43;;;;;;;;;;;11.90;99.90;;;;;;5056024;28;19970;-84
2023/06/18 03:20:10;;;;;;;;;;;11.90;99.90;;;;;;5081066;28;20568;-86
2023/06/18 03:22:35;;;;;;;;;;;11.90;99.90;;;;;;5089737;28;19912;-86
2023/06/18 03:25:02;;;;;;;;;;;11.90;99.90;;;;;;5087174;28;20279;-86
2023/06/18 03:27:28;;;;;;;;;;;11.90;99.90;;;;;;5080639;28;19912;-86
2023/06/18 03:29:55;;;;;;;;;;;11.90;99.90;;;;;;5080954;28;19908;-87
2023/06/18 03:32:23;;;;;;;;;;;12.00;99.90;;;;;;5063485;28;19912;-86
2023/06/18 03:34:48;;;;;;;;;;;12.00;99.90;;;;;;5063778;28;20275;-87
2023/06/18 03:37:19;;;;;;;;;;;12.10;99.90;;;;;;5080677;28;19912;-86
2023/06/18 03:39:45;;;;;;;;;;;12.20;99.90;;;;;;5063793;28;19916;-86
2023/06/18 03:42:12;;;;;;;;;;;12.20;99.90;;;;;;5063317;28;19961;-86
2023/06/18 03:44:38;;;;;;;;;;;12.20;99.90;;;;;;5080679;28;20656;-87
2023/06/18 03:50:32;;;;;;;;;;;12.20;99.90;;;;;;5081921;28;19935;-86
2023/06/18 03:53:02;;;;;;;;;;;12.30;99.90;;;;;;5067285;28;19908;-86
2023/06/18 03:55:28;;;;;;;;;;;12.40;99.90;;;;;;5073004;28;19908;-87
2023/06/18 03:57:56;;;;;;;;;;;12.40;99.90;;;;;;5063787;28;20283;-87
2023/06/18 04:00:21;;;;;;;;;;;12.50;99.90;;;;;;5080220;28;19912;-87
2023/06/18 04:02:47;;;;;;;;;;;12.60;99.90;;;;;;5070153;28;20344;-87
2023/06/18 04:05:18;;;;;;;;;;;12.70;99.90;;;;;;5080279;28;19916;-86
2023/06/18 04:08:08;;;;;;;;;;;12.90;99.90;;;;;;5063992;28;19908;-86
2023/06/18 04:10:34;;;;;;;;;;;13.00;99.90;;;;;;5077432;28;19915;-87
2023/06/18 04:13:00;;;;;;;;;;;13.20;99.90;;;;;;5065578;28;19908;-87
2023/06/18 04:15:25;;;;;;;;;;;13.40;99.90;;;;;;5080224;28;19908;-86
2023/06/18 04:17:51;;;;;;;;;;;13.50;99.90;;;;;;5079887;28;19916;-87
2023/06/18 04:20:26;;;;;;;;;;;13.70;99.90;;;;;;5080579;28;19923;-87
2023/06/18 04:22:52;;;;;;;;;;;13.90;99.90;;;;;;5080421;28;20007;-86
2023/06/18 04:25:20;;;;;;;;;;;14.10;99.90;;;;;;5080543;28;19978;-86
2023/06/18 04:28:00;;;;;;;;;;;14.20;99.90;;;;;;5068332;28;20011;-87
2023/06/18 04:30:26;;;;;;;;;;;14.30;99.90;;;;;;5080353;28;19908;-86
2023/06/18 04:32:53;;;;;;;;;;;14.50;99.90;;;;;;5077312;28;19912;-87
2023/06/18 04:35:19;;;;;;;;;;;14.60;99.90;;;;;;5060347;28;19912;-86
2023/06/18 04:37:45;;;;;;;;;;;14.70;99.90;;;;;;5076632;28;19912;-86
2023/06/18 04:40:11;;;;;;;;;;;14.90;99.90;;;;;;5077447;28;20343;-87
2023/06/18 04:42:38;;;;;;;;;;;15.10;99.90;;;;;;5077318;28;19924;-86
2023/06/18 04:45:09;;;;;;;;;;;15.30;99.90;;;;;;5060228;28;19908;-87
2023/06/18 04:47:34;;;;;;;;;;;15.40;99.90;;;;;;5060360;28;19989;-87
2023/06/18 04:50:02;;;;;;;;;;;15.60;99.90;;;;;;5060220;28;19912;-87
2023/06/18 04:52:29;;;;;;;;;;;15.80;99.90;;;;;;5060689;28;19919;-87
2023/06/18 04:54:55;;;;;;;;;;;16.00;99.90;;;;;;5060707;28;19962;-87
2023/06/18 04:57:24;;;;;;;;;;;16.10;99.90;;;;;;5076831;28;20031;-87
2023/06/18 04:59:52;;;;;;;;;;;16.30;99.90;;;;;;5076848;28;19908;-87
2023/06/18 05:02:18;;;;;;;;;;;16.40;99.90;;;;;;5077036;28;19912;-87
2023/06/18 05:04:44;;;;;;;;;;;16.50;99.90;;;;;;5059511;28;20396;-86
2023/06/18 05:07:12;;;;;;;;;;;16.60;99.90;;;;;;5076868;28;20322;-87
2023/06/18 05:09:40;;;;;;;;;;;16.70;99.90;;;;;;5060207;28;19892;-86
2023/06/18 05:12:05;;;;;;;;;;;16.90;99.90;;;;;;5076977;28;19910;-87
2023/06/18 05:14:31;;;;;;;;;;;17.00;99.90;;;;;;5059804;28;19908;-87
2023/06/18 05:16:58;;;;;;;;;;;17.10;99.90;;;;;;5076503;28;19919;-87
2023/06/18 05:19:23;;;;;;;;;;;17.20;99.90;;;;;;5059548;28;19916;-87
2023/06/18 05:21:50;;;;;;;;;;;17.40;99.90;;;;;;5060002;28;20031;-87
2023/06/18 05:24:17;;;;;;;;;;;17.50;99.90;;;;;;5076420;28;19931;-86
2023/06/18 05:26:45;;;;;;;;;;;17.60;99.90;;;;;;5076536;28;19916;-88
2023/06/18 05:29:13;;;;;;;;;;;17.70;99.90;;;;;;5059225;28;19915;-87
2023/06/18 05:31:38;;;;;;;;;;;17.80;99.90;;;;;;5059511;28;20038;-86
2023/06/18 05:34:10;;;;;;;;;;;17.90;99.90;;;;;;5060066;28;19904;-87
2023/06/18 05:36:37;;;;;;;;;;;18.00;99.90;;;;;;5060137;28;20007;-87
2023/06/18 05:39:03;;;;;;;;;;;18.20;99.90;;;;;;5060362;28;19966;-87
2023/06/18 05:41:29;;;;;;;;;;;18.30;99.90;;;;;;5060501;28;19912;-86
2023/06/18 05:43:59;;;;;;;;;;;18.50;99.90;;;;;;5076168;28;19908;-87
2023/06/18 05:46:25;;;;;;;;;;;18.70;99.90;;;;;;5047951;28;19916;-85
2023/06/18 05:48:50;;;;;;;;;;;18.80;99.90;;;;;;5075929;28;20019;-87
2023/06/18 05:51:18;;;;;;;;;;;18.90;99.90;;;;;;5066263;28;20275;-86
2023/06/18 05:53:43;;;;;;;;;;;19.10;99.90;;;;;;5070038;28;19923;-86
2023/06/18 05:56:11;;;;;;;;;;;19.30;99.90;;;;;;5071336;28;20280;-86
2023/06/18 05:58:37;;;;;;;;;;;19.30;99.90;;;;;;5074971;28;19915;-86
2023/06/18 06:01:04;;;;;;;;;;;19.50;99.90;;;;;;5068691;28;20016;-86
2023/06/18 06:03:30;;;;;;;;;;;19.60;99.90;;;;;;5057009;28;19944;-87
2023/06/18 06:05:57;;;;;;;;;;;19.80;99.90;;;;;;5074900;28;20587;-86
2023/06/18 06:08:23;;;;;;;;;;;20.00;99.90;;;;;;5072760;28;20367;-87
2023/06/18 06:10:53;;;;;;;;;;;20.10;99.90;;;;;;5055991;28;19916;-86
2023/06/18 06:13:20;;;;;;;;;;;20.10;99.90;;;;;;5071350;28;19908;-87
2023/06/18 06:15:47;;;;;;;;;;;20.20;99.90;;;;;;5073274;28;20264;-87
2023/06/18 06:18:13;;;;;;;;;;;20.30;99.90;;;;;;5072967;28;20053;-85
2023/06/18 06:20:38;;;;;;;;;;;20.50;99.90;;;;;;5083302;28;20474;-86
2023/06/18 06:23:05;;;;;;;;;;;20.60;99.90;;;;;;5068331;28;19912;-87
2023/06/18 06:25:31;;;;;;;;;;;20.70;99.90;;;;;;5068887;28;19915;-87
2023/06/18 06:27:57;;;;;;;;;;;20.80;99.90;;;;;;5071082;28;20421;-87
2023/06/18 06:30:23;;;;;;;;;;;20.90;99.90;;;;;;5061926;28;19912;-86
2023/06/18 06:32:53;;;;;;;;;;;20.80;99.90;;;;;;5065019;28;19909;-87
2023/06/18 06:35:20;;;;;;;;;;;20.90;99.90;;;;;;5057369;28;19916;-87
2023/06/18 06:37:46;;;;;;;;;;;21.00;99.90;;;;;;5062647;28;19909;-87
2023/06/18 06:40:13;;;;;;;;;;;21.00;99.90;;;;;;5071403;28;20000;-87
2023/06/18 06:42:41;;;;;;;;;;;21.20;99.90;;;;;;5055177;28;19908;-86
2023/06/18 06:45:42;;;;;;;;;;;21.30;99.90;;;;;;5046380;28;19966;-88
2023/06/18 06:48:14;;;;;;;;;;;21.40;99.90;;;;;;5057738;28;19912;-87
2023/06/18 06:50:45;;;;;;;;;;;21.40;99.90;;;;;;5065784;28;19944;-87
2023/06/18 06:53:20;;;;;;;;;;;21.60;99.80;;;;;;5088805;28;19916;-87
2023/06/18 06:55:45;;;;;;;;;;;21.60;98.80;;;;;;5069083;28;19908;-87
2023/06/18 06:58:14;;;;;;;;;;;21.70;98.50;;;;;;5074431;28;19976;-88
2023/06/18 07:00:41;;;;;;;;;;;21.90;98.60;;;;;;5053941;28;20387;-87
2023/06/18 07:03:08;;;;;;;;;;;22.10;97.90;;;;;;5065113;28;20271;-88
2023/06/18 07:05:34;;;;;;;;;;;22.20;98.00;;;;;;5052010;28;20332;-86
2023/06/18 07:08:02;;;;;;;;;;;22.50;97.30;;;;;;5055050;28;19908;-87
2023/06/18 07:10:28;;;;;;;;;;;22.90;95.30;;;;;;5075690;28;19947;-87
2023/06/18 07:12:53;;;;;;;;;;;23.70;94.30;;;;;;5056822;28;19913;-86
2023/06/18 07:15:19;;;;;;;;;;;25.00;92.10;;;;;;5073760;28;19908;-86
2023/06/18 07:17:45;;;;;;;;;;;26.20;89.70;;;;;;5057523;28;19934;-87
2023/06/18 07:20:10;;;;;;;;;;;27.10;85.20;;;;;;5072501;28;20011;-85
2023/06/18 07:22:36;;;;;;;;;;;28.00;79.70;;;;;;5048769;28;19916;-86
2023/06/18 07:25:03;;;;;;;;;;;28.70;75.90;;;;;;5065775;28;19916;-87
2023/06/18 07:27:28;;;;;;;;;;;29.30;71.90;;;;;;5059010;28;19916;-86
2023/06/18 07:29:55;;;;;;;;;;;29.80;70.20;;;;;;5083782;28;19912;-86
2023/06/18 07:32:20;;;;;;;;;;;30.30;66.50;;;;;;5064561;28;19915;-86
2023/06/18 07:34:46;;;;;;;;;;;30.70;66.90;;;;;;5051820;28;20730;-86
2023/06/18 07:37:12;;;;;;;;;;;30.90;62.40;;;;;;5064932;28;19916;-87
2023/06/18 07:39:38;;;;;;;;;;;31.20;61.00;;;;;;5054305;28;19909;-89
2023/06/18 07:42:03;;;;;;;;;;;31.10;60.00;;;;;;5059758;28;19916;-87
2023/06/18 07:44:29;;;;;;;;;;;29.80;58.70;;;;;;5065571;28;20386;-88
2023/06/18 07:46:55;;;;;;;;;;;28.30;59.60;;;;;;5075459;28;19916;-88
2023/06/18 07:49:24;;;;;;;;;;;27.30;62.60;;;;;;5075104;28;19908;-87
2023/06/18 07:51:50;;;;;;;;;;;26.30;63.40;;;;;;5057553;28;19916;-87
2023/06/18 07:54:15;;;;;;;;;;;25.50;65.20;;;;;;5073188;28;20273;-87
2023/06/18 07:56:41;;;;;;;;;;;25.00;66.70;;;;;;5074497;28;19920;-89
2023/06/18 07:59:06;;;;;;;;;;;24.80;68.40;;;;;;5073483;28;19911;-87
2023/06/18 08:01:33;;;;;;;;;;;25.60;69.40;;;;;;5073600;28;19988;-88
2023/06/18 08:03:58;;;;;;;;;;;27.40;65.00;;;;;;5056638;28;19905;-87
2023/06/18 08:06:24;;;;;;;;;;;28.70;62.70;;;;;;5073517;28;20424;-88
2023/06/18 08:08:50;;;;;;;;;;;29.90;61.50;;;;;;5076313;28;19908;-88
2023/06/18 08:11:17;;;;;;;;;;;30.20;58.10;;;;;;5077456;28;19912;-87
2023/06/18 08:13:42;;;;;;;;;;;30.70;58.80;;;;;;5061512;28;19911;-88
2023/06/18 08:16:08;;;;;;;;;;;31.20;56.30;;;;;;5077658;28;20364;-88
2023/06/18 08:18:34;;;;;;;;;;;31.60;57.60;;;;;;5077543;28;19974;-88
2023/06/18 08:21:00;;;;;;;;;;;32.10;56.70;;;;;;5085112;28;19912;-88
2023/06/18 08:23:26;;;;;;;;;;;32.10;55.20;;;;;;5100172;28;20271;-88
2023/06/18 08:25:52;;;;;;;;;;;31.80;54.90;;;;;;5066002;28;19916;-88
2023/06/18 08:28:17;;;;;;;;;;;31.70;54.20;;;;;;5079701;28;20005;-88
2023/06/18 08:30:43;;;;;;;;;;;32.10;54.60;;;;;;5061201;28;20356;-87
2023/06/18 08:33:09;;;;;;;;;;;32.60;54.00;;;;;;5077790;28;19973;-87
2023/06/18 08:35:37;;;;;;;;;;;32.90;52.20;;;;;;5061787;28;19971;-87
2023/06/18 08:38:03;;;;;;;;;;;33.40;52.30;;;;;;5062719;28;19912;-87
2023/06/18 08:40:34;;;;;;;;;;;33.80;50.20;;;;;;5061427;28;19908;-87
2023/06/18 08:43:00;;;;;;;;;;;33.80;51.20;;;;;;5060325;28;19908;-87
2023/06/18 08:45:25;;;;;;;;;;;33.20;50.80;;;;;;5078311;28;19959;-88
2023/06/18 08:47:53;;;;;;;;;;;33.40;51.30;;;;;;5076510;28;19904;-87
2023/06/18 08:50:19;;;;;;;;;;;33.30;51.20;;;;;;5077164;28;20356;-87
2023/06/18 08:52:48;;;;;;;;;;;33.00;50.70;;;;;;5060024;28;20401;-87
2023/06/18 08:55:14;;;;;;;;;;;33.10;50.70;;;;;;5086481;28;19961;-89
2023/06/18 08:57:48;;;;;;;;;;;33.30;50.20;;;;;;5081067;28;20352;-87
2023/06/18 09:00:14;;;;;;;;;;;33.30;49.10;;;;;;5077908;28;19912;-87
2023/06/18 09:02:41;;;;;;;;;;;32.90;50.50;;;;;;5087803;28;19954;-88
2023/06/18 09:05:07;;;;;;;;;;;32.70;50.70;;;;;;5083289;28;19912;-87
2023/06/18 09:07:33;;;;;;;;;;;33.10;50.40;;;;;;5076267;28;19951;-87
2023/06/18 09:09:59;;;;;;;;;;;33.20;50.10;;;;;;5077355;28;20359;-87
2023/06/18 09:12:26;;;;;;;;;;;33.60;50.60;;;;;;5077195;28;19915;-88
2023/06/18 09:14:51;;;;;;;;;;;33.70;50.00;;;;;;5076668;28;19966;-87
2023/06/18 09:17:17;;;;;;;;;;;33.30;49.50;;;;;;5059592;28;19916;-87
2023/06/18 09:19:43;;;;;;;;;;;33.00;49.00;;;;;;5076313;28;19912;-88
2023/06/18 09:22:11;;;;;;;;;;;33.10;50.40;;;;;;5060282;28;19924;-87
2023/06/18 09:24:36;;;;;;;;;;;32.70;51.00;;;;;;5059721;28;20351;-88
2023/06/18 09:27:03;;;;;;;;;;;32.70;48.40;;;;;;5059633;28;19914;-87
2023/06/18 09:29:31;;;;;;;;;;;33.10;48.90;;;;;;5076753;28;19913;-88
2023/06/18 09:32:04;;;;;;;;;;;33.70;48.30;;;;;;5059310;28;19991;-88
2023/06/18 09:34:30;;;;;;;;;;;33.80;47.50;;;;;;5076866;28;19954;-88
2023/06/18 09:36:56;;;;;;;;;;;34.20;47.80;;;;;;5058554;28;20405;-87
2023/06/18 09:39:22;;;;;;;;;;;34.00;47.60;;;;;;5076107;28;19912;-87
2023/06/18 09:41:50;;;;;;;;;;;34.20;46.50;;;;;;5060073;28;19908;-88
2023/06/18 09:44:16;;;;;;;;;;;33.40;46.60;;;;;;5077708;28;19909;-88
2023/06/18 09:46:43;;;;;;;;;;;33.40;47.30;;;;;;5060115;28;19912;-88
2023/06/18 09:49:10;;;;;;;;;;;32.20;47.40;;;;;;5077749;28;19912;-86
2023/06/18 09:51:41;;;;;;;;;;;31.80;48.70;;;;;;5075683;28;20326;-87
2023/06/18 09:54:07;;;;;;;;;;;32.40;48.80;;;;;;5076815;28;19908;-87
2023/06/18 09:56:32;;;;;;;;;;;33.50;47.30;;;;;;5077761;28;19919;-87
2023/06/18 09:58:58;;;;;;;;;;;34.20;46.50;;;;;;5076163;28;19912;-88
2023/06/18 10:01:55;;;;;;;;;;;33.90;46.30;;;;;;5075604;28;19978;-88
2023/06/18 10:04:21;;;;;;;;;;;32.80;46.60;;;;;;5059070;28;19954;-86
2023/06/18 10:06:52;;;;;;;;;;;31.90;46.70;;;;;;5060840;28;19908;-86
2023/06/18 10:09:22;;;;;;;;;;;31.50;48.80;;;;;;5075988;28;19912;-87
2023/06/18 10:11:51;;;;;;;;;;;31.10;48.50;;;;;;5076262;28;19915;-87
2023/06/18 10:14:21;;;;;;;;;;;30.50;48.80;;;;;;5075741;28;20257;-87
2023/06/18 10:16:51;;;;;;;;;;;30.80;48.80;;;;;;5075686;28;20351;-87
2023/06/18 10:19:27;;;;;;;;;;;31.30;48.00;;;;;;5075571;28;19908;-87
2023/06/18 10:21:57;;;;;;;;;;;31.50;48.70;;;;;;5059256;28;19909;-87
2023/06/18 10:24:34;;;;;;;;;;;31.50;48.70;;;;;;5060120;28;19919;-88
2023/06/18 10:27:04;;;;;;;;;;;31.50;49.30;;;;;;5078066;28;19909;-88
2023/06/18 10:29:31;;;;;;;;;;;31.70;50.20;;;;;;5075065;28;19947;-88
2023/06/18 10:32:00;;;;;;;;;;;30.80;47.90;;;;;;5075652;28;20409;-88
2023/06/18 10:34:26;;;;;;;;;;;30.70;49.20;;;;;;5076151;28;19909;-87
2023/06/18 10:36:52;;;;;;;;;;;30.90;49.70;;;;;;5075965;28;19919;-87
2023/06/18 10:39:18;;;;;;;;;;;31.00;49.50;;;;;;5075429;28;19912;-88
2023/06/18 10:41:44;;;;;;;;;;;30.80;48.80;;;;;;5059566;28;19913;-88
2023/06/18 10:44:10;;;;;;;;;;;30.80;49.60;;;;;;5075417;28;20007;-88
2023/06/18 10:46:36;;;;;;;;;;;30.90;48.00;;;;;;5075624;28;19946;-88
2023/06/18 10:49:12;;;;;;;;;;;31.10;48.50;;;;;;5075324;28;20394;-88
2023/06/18 10:51:38;;;;;;;;;;;31.20;47.80;;;;;;5058881;28;19908;-87
2023/06/18 10:54:23;;;;;;;;;;;30.50;47.80;;;;;;5076373;28;19957;-88
2023/06/18 10:56:53;;;;;;;;;;;30.50;48.80;;;;;;5076629;28;19960;-87
2023/06/18 10:59:35;;;;;;;;;;;30.90;46.90;;;;;;5064983;28;19909;-87
2023/06/18 11:02:00;;;;;;;;;;;30.80;46.80;;;;;;5073437;28;19916;-87
2023/06/18 11:04:29;;;;;;;;;;;30.80;46.30;;;;;;5058540;28;19909;-88
2023/06/18 11:07:25;;;;;;;;;;;30.80;47.10;;;;;;5075180;28;19916;-88
2023/06/18 11:10:16;;;;;;;;;;;30.80;47.70;;;;;;5058115;28;19915;-88
2023/06/18 11:12:44;;;;;;;;;;;31.30;46.90;;;;;;5058983;28;20355;-89
2023/06/18 11:15:17;;;;;;;;;;;31.70;47.90;;;;;;5075089;28;19957;-89
2023/06/18 11:18:25;;;;;;;;;;;31.20;47.30;;;;;;5075621;28;19912;-88
2023/06/18 11:20:51;;;;;;;;;;;31.40;46.50;;;;;;5072867;28;20008;-87
2023/06/18 11:23:17;;;;;;;;;;;31.90;46.40;;;;;;5075828;28;19927;-87
2023/06/18 11:25:44;;;;;;;;;;;32.20;46.60;;;;;;5057806;28;20007;-87
2023/06/18 11:28:12;;;;;;;;;;;32.70;47.10;;;;;;5074655;28;20295;-88
2023/06/18 11:30:37;;;;;;;;;;;32.60;46.90;;;;;;5057934;28;19916;-87
2023/06/18 11:33:03;;;;;;;;;;;32.80;46.90;;;;;;5075910;28;20312;-88
2023/06/18 11:35:31;;;;;;;;;;;33.30;46.80;;;;;;5058871;28;20288;-88
2023/06/18 11:37:57;;;;;;;;;;;33.30;43.70;;;;;;5058658;28;20354;-88
2023/06/18 11:40:23;;;;;;;;;;;32.90;45.10;;;;;;5057926;28;19966;-89
2023/06/18 11:42:52;;;;;;;;;;;32.70;46.50;;;;;;5079017;28;19939;-88
2023/06/18 11:45:18;;;;;;;;;;;32.40;45.70;;;;;;5080839;28;19914;-87
2023/06/18 11:47:48;;;;;;;;;;;31.80;46.00;;;;;;5062665;28;19916;-87
2023/06/18 11:50:14;;;;;;;;;;;31.70;46.90;;;;;;5062900;28;19966;-88
2023/06/18 11:52:40;;;;;;;;;;;31.80;46.80;;;;;;5078204;28;20334;-89
2023/06/18 11:55:19;;;;;;;;;;;32.00;47.70;;;;;;5062127;28;19954;-88
2023/06/18 11:57:46;;;;;;;;;;;31.50;44.70;;;;;;5078635;28;19934;-88
2023/06/18 12:00:12;;;;;;;;;;;31.30;45.40;;;;;;5062123;28;19908;-88
2023/06/18 12:02:40;;;;;;;;;;;31.30;48.10;;;;;;5078049;28;19909;-87
2023/06/18 12:05:07;;;;;;;;;;;30.80;47.60;;;;;;5061605;28;19909;-88
2023/06/18 12:07:32;;;;;;;;;;;30.90;46.70;;;;;;5077824;28;20010;-87
2023/06/18 12:12:48;;;;;;;;;;;30.80;47.80;;;;;;5077341;28;19909;-88
2023/06/18 12:15:19;;;;;;;;;;;31.50;48.70;;;;;;5079223;28;20350;-88
2023/06/18 12:18:11;;;;;;;;;;;31.40;44.80;;;;;;5061982;28;19912;-88
2023/06/18 12:20:37;;;;;;;;;;;31.70;47.10;;;;;;5060260;28;19915;-87
2023/06/18 12:23:05;;;;;;;;;;;32.00;46.30;;;;;;5077804;28;20263;-87
2023/06/18 12:25:31;;;;;;;;;;;32.60;46.10;;;;;;5078431;28;19909;-88
2023/06/18 12:27:57;;;;;;;;;;;32.50;46.00;;;;;;5078825;28;19909;-88
2023/06/18 12:30:30;;;;;;;;;;;32.70;46.50;;;;;;5061298;28;20360;-88
2023/06/18 12:33:00;;;;;;;;;;;32.70;46.30;;;;;;5061069;28;19996;-87
2023/06/18 12:35:25;;;;;;;;;;;32.50;47.00;;;;;;5061117;28;19915;-88
2023/06/18 12:37:51;;;;;;;;;;;33.00;44.90;;;;;;5061155;28;19999;-87
2023/06/18 12:40:20;;;;;;;;;;;33.70;44.60;;;;;;5077078;28;19914;-87
2023/06/18 12:42:46;;;;;;;;;;;34.50;44.00;;;;;;5073806;28;19915;-88
2023/06/18 12:45:12;;;;;;;;;;;35.00;42.20;;;;;;5067767;28;19953;-88
2023/06/18 12:47:45;;;;;;;9.10;6.22;;;35.40;42.90;;;;;;5060199;28;19957;-87
2023/06/18 12:50:12;;;;;;;7.85;6.43;;;34.90;42.50;;;;;;5057864;28;20377;-89
2023/06/18 12:52:43;;;;;;;6.70;5.90;;;34.70;43.40;;;;;;5072072;28;20029;-88
2023/06/18 12:55:34;;;;;;;8.90;6.13;;;33.80;43.40;;;;;;5071628;28;20036;-87
2023/06/18 12:58:00;;;;;;;7.32;5.85;;;34.10;43.30;;;;;;5074744;28;20078;-88
2023/06/18 13:00:25;;;;;;;11.05;6.40;;;34.20;43.30;;;;;;5087073;28;20016;-88
2023/06/18 13:02:52;;;;;;;12.38;6.15;;;34.20;42.70;;;;;;5068470;28;20028;-88
2023/06/18 13:05:22;;;;;;;8.40;5.90;;;34.70;41.90;;;;;;5071737;28;20025;-88
2023/06/18 13:07:52;;;;;;;13.60;5.55;;;35.60;43.10;;;;;;5069431;28;20395;-89
2023/06/18 13:10:19;;;;;;;6.80;6.10;;;34.90;41.80;;;;;;5068936;28;20119;-90
2023/06/18 13:12:46;;;;;;;6.28;5.53;;;35.10;43.70;;;;;;5086650;28;20482;-87
2023/06/18 13:15:13;;;;;;;10.57;6.13;;;34.50;41.60;;;;;;5060643;28;20030;-88
2023/06/18 13:18:25;;;;;;;8.20;6.32;;;34.20;42.50;;;;;;5078600;28;20488;-87
2023/06/18 13:20:51;;;;;;;6.55;5.90;;;34.10;42.30;;;;;;5078017;28;20469;-86
2023/06/18 13:23:24;;;;;;;8.00;6.22;;;34.30;42.30;;;;;;5075552;28;20469;-88
2023/06/18 13:25:50;;;;;;;9.00;5.40;;;34.30;41.30;;;;;;5076961;28;20063;-88
2023/06/18 13:28:17;;;;;;;;;;;34.10;41.30;;;;;;5087655;28;20081;-89
2023/06/18 13:30:42;;;;;;;;;;;34.10;43.10;;;;;;5070054;28;19970;-88
2023/06/18 13:33:08;;;;;;;;;;;34.50;41.60;;;;;;5065824;28;19908;-88
2023/06/18 13:35:33;;;;;;;;;;;34.90;40.30;;;;;;5074802;28;19955;-88
2023/06/18 13:37:59;;;;;;;;;;;35.40;41.30;;;;;;5057077;28;19924;-89
2023/06/18 13:40:26;;;;;;;;;;;35.30;42.00;;;;;;5105119;28;19915;-90
2023/06/18 13:42:58;;;;;;;;;;;35.20;41.70;;;;;;5082112;28;19909;-88
2023/06/18 13:45:23;;;;;;;;;;;34.70;42.10;;;;;;5067902;28;19936;-88
2023/06/18 13:47:49;;;;;;;;;;;34.40;41.20;;;;;;5064881;28;19909;-88
2023/06/18 13:50:15;;;;;;;;;;;34.20;41.80;;;;;;5089841;28;19909;-89
2023/06/18 13:52:40;;;;;;;;;;;33.80;42.40;;;;;;5076385;28;19908;-88
2023/06/18 13:55:06;;;;;;;;;;;33.80;43.20;;;;;;5076831;28;19909;-88
2023/06/18 13:57:32;;;;;;;;;;;34.20;42.20;;;;;;5077806;28;19912;-89
2023/06/18 13:59:57;;;;;;;;;;;34.30;42.00;;;;;;5072658;28;19930;-88
2023/06/18 14:02:23;;;;;;;;;;;34.60;41.20;;;;;;5059685;28;19913;-88
2023/06/18 14:04:49;;;;;;;;;;;35.00;42.50;;;;;;5086194;28;20363;-88
2023/06/18 14:07:14;;;;;;;;;;;35.40;40.80;;;;;;5070204;28;19913;-88
2023/06/18 14:09:40;;;;;;;;;;;35.80;41.70;;;;;;5068451;28;20364;-89
2023/06/18 14:12:06;;;;;;;;;;;36.00;39.80;;;;;;5057774;28;19909;-89
2023/06/18 14:14:33;;;;;;;6.38;5.30;;;35.80;40.60;;;;;;5068373;28;20343;-89
2023/06/18 14:17:00;;;;;;;6.25;5.30;;;35.80;40.50;;;;;;5070525;28;20035;-89
2023/06/18 14:19:25;;;;;;;9.80;5.90;;;35.60;41.40;;;;;;5073947;28;20078;-88
2023/06/18 14:21:52;;;;;;;6.93;5.72;;;34.90;39.90;;;;;;5066842;28;20463;-89
2023/06/18 14:24:18;;;;;;;6.72;6.00;;;34.80;40.60;;;;;;5051390;28;20020;-88
2023/06/18 14:26:44;;;;;;;6.32;5.72;;;34.70;40.40;;;;;;5066596;28;20058;-88